sensor_id;sensor_type;location;lat;lon;timestamp;P1;durP1;ratioP1;P2;durP2;ratioP2
77099;SDS011;66602;48.922;2.414;2023-12-14T00:00:10;6.22;;;2.85;;
77099;SDS011;66602;48.922;2.414;2023-12-14T00:02:36;2.72;;;2.47;;
77099;SDS011;66602;48.922;2.414;2023-12-14T00:05:03;7.80;;;3.80;;
77099;SDS011;66602;48.922;2.414;2023-12-14T00:07:29;7.70;;;2.58;;
77099;SDS011;66602;48.922;2.414;2023-12-14T00:09:54;2.80;;;2.60;;
77099;SDS011;66602;48.922;2.414;2023-12-14T00:12:19;3.58;;;2.80;;
77099;SDS011;66602;48.922;2.414;2023-12-14T00:14:45;3.40;;;2.85;;
77099;SDS011;66602;48.922;2.414;2023-12-14T00:17:10;6.88;;;2.72;;
77099;SDS011;66602;48.922;2.414;2023-12-14T00:19:36;2.60;;;2.40;;
77099;SDS011;66602;48.922;2.414;2023-12-14T00:22:02;2.60;;;2.38;;
77099;SDS011;66602;48.922;2.414;2023-12-14T00:24:27;5.55;;;1.92;;
77099;SDS011;66602;48.922;2.414;2023-12-14T00:26:53;2.00;;;1.90;;
77099;SDS011;66602;48.922;2.414;2023-12-14T00:29:18;2.42;;;2.22;;
77099;SDS011;66602;48.922;2.414;2023-12-14T00:31:44;2.47;;;1.58;;
77099;SDS011;66602;48.922;2.414;2023-12-14T00:34:09;4.03;;;1.77;;
77099;SDS011;66602;48.922;2.414;2023-12-14T00:36:35;7.50;;;2.03;;
77099;SDS011;66602;48.922;2.414;2023-12-14T00:39:01;1.90;;;1.70;;
77099;SDS011;66602;48.922;2.414;2023-12-14T00:41:26;4.05;;;1.80;;
77099;SDS011;66602;48.922;2.414;2023-12-14T00:43:52;3.65;;;1.80;;
77099;SDS011;66602;48.922;2.414;2023-12-14T00:46:17;3.13;;;1.63;;
77099;SDS011;66602;48.922;2.414;2023-12-14T00:48:43;7.95;;;2.30;;
77099;SDS011;66602;48.922;2.414;2023-12-14T00:51:09;3.50;;;1.70;;
77099;SDS011;66602;48.922;2.414;2023-12-14T00:53:34;3.70;;;1.90;;
77099;SDS011;66602;48.922;2.414;2023-12-14T00:56:00;4.57;;;1.95;;
77099;SDS011;66602;48.922;2.414;2023-12-14T00:58:25;6.30;;;1.77;;
77099;SDS011;66602;48.922;2.414;2023-12-14T01:00:51;3.95;;;1.50;;
77099;SDS011;66602;48.922;2.414;2023-12-14T01:03:19;4.82;;;2.20;;
77099;SDS011;66602;48.922;2.414;2023-12-14T01:05:45;2.15;;;1.80;;
77099;SDS011;66602;48.922;2.414;2023-12-14T01:08:10;3.15;;;1.60;;
77099;SDS011;66602;48.922;2.414;2023-12-14T01:10:36;1.58;;;1.13;;
77099;SDS011;66602;48.922;2.414;2023-12-14T01:13:01;2.22;;;1.38;;
77099;SDS011;66602;48.922;2.414;2023-12-14T01:15:27;3.10;;;1.60;;
77099;SDS011;66602;48.922;2.414;2023-12-14T01:17:52;8.30;;;1.60;;
77099;SDS011;66602;48.922;2.414;2023-12-14T01:20:18;5.10;;;1.35;;
77099;SDS011;66602;48.922;2.414;2023-12-14T01:22:44;3.95;;;1.50;;
77099;SDS011;66602;48.922;2.414;2023-12-14T01:25:09;2.25;;;1.50;;
77099;SDS011;66602;48.922;2.414;2023-12-14T01:27:35;4.25;;;1.67;;
77099;SDS011;66602;48.922;2.414;2023-12-14T01:30:00;6.03;;;1.30;;
77099;SDS011;66602;48.922;2.414;2023-12-14T01:32:26;1.95;;;1.20;;
77099;SDS011;66602;48.922;2.414;2023-12-14T01:34:51;1.85;;;1.23;;
77099;SDS011;66602;48.922;2.414;2023-12-14T01:37:18;1.30;;;1.20;;
77099;SDS011;66602;48.922;2.414;2023-12-14T01:39:44;1.65;;;1.17;;
77099;SDS011;66602;48.922;2.414;2023-12-14T01:42:09;2.47;;;1.27;;
77099;SDS011;66602;48.922;2.414;2023-12-14T01:44:34;1.67;;;1.40;;
77099;SDS011;66602;48.922;2.414;2023-12-14T01:47:00;8.35;;;1.23;;
77099;SDS011;66602;48.922;2.414;2023-12-14T01:49:25;2.67;;;1.65;;
77099;SDS011;66602;48.922;2.414;2023-12-14T01:51:51;1.50;;;1.40;;
77099;SDS011;66602;48.922;2.414;2023-12-14T01:54:16;2.80;;;1.58;;
77099;SDS011;66602;48.922;2.414;2023-12-14T01:56:42;4.03;;;1.30;;
77099;SDS011;66602;48.922;2.414;2023-12-14T01:59:08;1.70;;;1.23;;
77099;SDS011;66602;48.922;2.414;2023-12-14T02:01:41;1.27;;;1.17;;
77099;SDS011;66602;48.922;2.414;2023-12-14T02:04:08;2.35;;;1.10;;
77099;SDS011;66602;48.922;2.414;2023-12-14T02:06:35;4.40;;;1.42;;
77099;SDS011;66602;48.922;2.414;2023-12-14T02:09:01;1.48;;;1.35;;
77099;SDS011;66602;48.922;2.414;2023-12-14T02:11:27;2.55;;;1.33;;
77099;SDS011;66602;48.922;2.414;2023-12-14T02:13:52;3.97;;;2.03;;
77099;SDS011;66602;48.922;2.414;2023-12-14T02:16:18;1.40;;;1.27;;
77099;SDS011;66602;48.922;2.414;2023-12-14T02:18:44;3.25;;;1.38;;
77099;SDS011;66602;48.922;2.414;2023-12-14T02:21:10;1.15;;;1.15;;
77099;SDS011;66602;48.922;2.414;2023-12-14T02:23:42;1.45;;;1.42;;
77099;SDS011;66602;48.922;2.414;2023-12-14T02:26:11;2.83;;;1.70;;
77099;SDS011;66602;48.922;2.414;2023-12-14T02:28:37;3.47;;;1.42;;
77099;SDS011;66602;48.922;2.414;2023-12-14T02:31:02;2.28;;;1.33;;
77099;SDS011;66602;48.922;2.414;2023-12-14T02:33:28;4.10;;;1.30;;
77099;SDS011;66602;48.922;2.414;2023-12-14T02:35:54;1.35;;;1.27;;
77099;SDS011;66602;48.922;2.414;2023-12-14T02:38:19;1.73;;;1.63;;
77099;SDS011;66602;48.922;2.414;2023-12-14T02:40:45;2.83;;;1.20;;
77099;SDS011;66602;48.922;2.414;2023-12-14T02:43:11;2.40;;;1.38;;
77099;SDS011;66602;48.922;2.414;2023-12-14T02:45:37;1.33;;;1.20;;
77099;SDS011;66602;48.922;2.414;2023-12-14T02:48:02;3.20;;;1.42;;
77099;SDS011;66602;48.922;2.414;2023-12-14T02:50:28;3.42;;;1.55;;
77099;SDS011;66602;48.922;2.414;2023-12-14T02:52:54;1.95;;;1.27;;
77099;SDS011;66602;48.922;2.414;2023-12-14T02:55:19;1.40;;;1.35;;
77099;SDS011;66602;48.922;2.414;2023-12-14T02:57:45;1.58;;;1.40;;
77099;SDS011;66602;48.922;2.414;2023-12-14T03:00:11;3.08;;;1.33;;
77099;SDS011;66602;48.922;2.414;2023-12-14T03:02:38;2.65;;;1.50;;
77099;SDS011;66602;48.922;2.414;2023-12-14T03:05:03;1.95;;;1.85;;
77099;SDS011;66602;48.922;2.414;2023-12-14T03:07:29;3.67;;;1.58;;
77099;SDS011;66602;48.922;2.414;2023-12-14T03:09:55;1.50;;;1.40;;
77099;SDS011;66602;48.922;2.414;2023-12-14T03:12:20;1.52;;;1.23;;
77099;SDS011;66602;48.922;2.414;2023-12-14T03:14:46;1.27;;;1.27;;
77099;SDS011;66602;48.922;2.414;2023-12-14T03:17:11;1.67;;;1.58;;
77099;SDS011;66602;48.922;2.414;2023-12-14T03:19:38;3.03;;;2.55;;
77099;SDS011;66602;48.922;2.414;2023-12-14T03:22:05;7.80;;;1.77;;
77099;SDS011;66602;48.922;2.414;2023-12-14T03:24:30;1.63;;;1.52;;
77099;SDS011;66602;48.922;2.414;2023-12-14T03:26:56;3.67;;;1.52;;
77099;SDS011;66602;48.922;2.414;2023-12-14T03:29:22;4.68;;;2.17;;
77099;SDS011;66602;48.922;2.414;2023-12-14T03:31:47;1.40;;;1.30;;
77099;SDS011;66602;48.922;2.414;2023-12-14T03:34:13;3.70;;;1.77;;
77099;SDS011;66602;48.922;2.414;2023-12-14T03:36:38;1.58;;;1.20;;
77099;SDS011;66602;48.922;2.414;2023-12-14T03:39:04;2.13;;;1.30;;
77099;SDS011;66602;48.922;2.414;2023-12-14T03:41:31;1.15;;;1.15;;
77099;SDS011;66602;48.922;2.414;2023-12-14T03:43:57;1.30;;;1.20;;
77099;SDS011;66602;48.922;2.414;2023-12-14T03:46:23;1.08;;;1.08;;
77099;SDS011;66602;48.922;2.414;2023-12-14T03:48:49;0.88;;;0.88;;
77099;SDS011;66602;48.922;2.414;2023-12-14T03:51:17;1.08;;;1.08;;
77099;SDS011;66602;48.922;2.414;2023-12-14T03:53:46;1.75;;;1.25;;
77099;SDS011;66602;48.922;2.414;2023-12-14T03:56:12;1.30;;;1.30;;
77099;SDS011;66602;48.922;2.414;2023-12-14T03:58:38;3.75;;;1.48;;
77099;SDS011;66602;48.922;2.414;2023-12-14T04:01:05;1.67;;;1.33;;
77099;SDS011;66602;48.922;2.414;2023-12-14T04:03:30;1.40;;;1.40;;
77099;SDS011;66602;48.922;2.414;2023-12-14T04:05:57;2.00;;;1.55;;
77099;SDS011;66602;48.922;2.414;2023-12-14T04:08:23;1.90;;;1.80;;
77099;SDS011;66602;48.922;2.414;2023-12-14T04:10:51;5.35;;;1.80;;
77099;SDS011;66602;48.922;2.414;2023-12-14T04:13:17;1.80;;;1.60;;
77099;SDS011;66602;48.922;2.414;2023-12-14T04:15:42;5.05;;;2.22;;
77099;SDS011;66602;48.922;2.414;2023-12-14T04:18:08;2.13;;;2.03;;
77099;SDS011;66602;48.922;2.414;2023-12-14T04:20:35;2.45;;;2.13;;
77099;SDS011;66602;48.922;2.414;2023-12-14T04:23:01;2.75;;;2.38;;
77099;SDS011;66602;48.922;2.414;2023-12-14T04:25:26;2.60;;;2.50;;
77099;SDS011;66602;48.922;2.414;2023-12-14T04:27:52;5.10;;;2.50;;
77099;SDS011;66602;48.922;2.414;2023-12-14T04:30:17;3.05;;;2.72;;
77099;SDS011;66602;48.922;2.414;2023-12-14T04:32:44;2.92;;;2.70;;
77099;SDS011;66602;48.922;2.414;2023-12-14T04:35:11;4.22;;;3.47;;
77099;SDS011;66602;48.922;2.414;2023-12-14T04:37:37;4.18;;;3.22;;
77099;SDS011;66602;48.922;2.414;2023-12-14T04:40:02;6.43;;;3.85;;
77099;SDS011;66602;48.922;2.414;2023-12-14T04:42:28;4.60;;;3.60;;
77099;SDS011;66602;48.922;2.414;2023-12-14T04:44:53;8.32;;;3.80;;
77099;SDS011;66602;48.922;2.414;2023-12-14T04:47:20;3.63;;;3.30;;
77099;SDS011;66602;48.922;2.414;2023-12-14T04:49:46;5.63;;;4.25;;
77099;SDS011;66602;48.922;2.414;2023-12-14T04:52:11;6.35;;;3.47;;
77099;SDS011;66602;48.922;2.414;2023-12-14T04:54:37;10.05;;;4.47;;
77099;SDS011;66602;48.922;2.414;2023-12-14T04:57:05;6.72;;;4.70;;
77099;SDS011;66602;48.922;2.414;2023-12-14T04:59:30;8.73;;;3.90;;
77099;SDS011;66602;48.922;2.414;2023-12-14T05:01:56;4.97;;;3.10;;
77099;SDS011;66602;48.922;2.414;2023-12-14T05:04:21;8.90;;;3.38;;
77099;SDS011;66602;48.922;2.414;2023-12-14T05:06:47;5.40;;;3.10;;
77099;SDS011;66602;48.922;2.414;2023-12-14T05:09:13;8.30;;;3.85;;
77099;SDS011;66602;48.922;2.414;2023-12-14T05:11:42;8.40;;;2.55;;
77099;SDS011;66602;48.922;2.414;2023-12-14T05:14:08;7.75;;;3.58;;
77099;SDS011;66602;48.922;2.414;2023-12-14T05:16:33;6.90;;;3.28;;
77099;SDS011;66602;48.922;2.414;2023-12-14T05:18:59;7.97;;;3.10;;
77099;SDS011;66602;48.922;2.414;2023-12-14T05:21:24;4.30;;;2.90;;
77099;SDS011;66602;48.922;2.414;2023-12-14T05:23:50;6.88;;;2.90;;
77099;SDS011;66602;48.922;2.414;2023-12-14T05:26:15;6.78;;;3.30;;
77099;SDS011;66602;48.922;2.414;2023-12-14T05:28:42;6.70;;;3.20;;
77099;SDS011;66602;48.922;2.414;2023-12-14T05:31:07;7.20;;;3.28;;
77099;SDS011;66602;48.922;2.414;2023-12-14T05:33:36;17.02;;;4.28;;
77099;SDS011;66602;48.922;2.414;2023-12-14T05:36:02;10.35;;;3.63;;
77099;SDS011;66602;48.922;2.414;2023-12-14T05:38:30;8.43;;;2.85;;
77099;SDS011;66602;48.922;2.414;2023-12-14T05:40:55;13.20;;;4.03;;
77099;SDS011;66602;48.922;2.414;2023-12-14T05:43:21;11.82;;;5.13;;
77099;SDS011;66602;48.922;2.414;2023-12-14T05:45:46;10.10;;;3.47;;
77099;SDS011;66602;48.922;2.414;2023-12-14T05:48:12;5.95;;;3.08;;
77099;SDS011;66602;48.922;2.414;2023-12-14T05:50:38;6.00;;;3.70;;
77099;SDS011;66602;48.922;2.414;2023-12-14T05:53:03;14.40;;;3.72;;
77099;SDS011;66602;48.922;2.414;2023-12-14T05:55:29;6.57;;;2.85;;
77099;SDS011;66602;48.922;2.414;2023-12-14T05:57:54;6.63;;;3.20;;
77099;SDS011;66602;48.922;2.414;2023-12-14T06:00:21;9.02;;;3.83;;
77099;SDS011;66602;48.922;2.414;2023-12-14T06:02:47;6.05;;;3.00;;
77099;SDS011;66602;48.922;2.414;2023-12-14T06:05:12;9.27;;;3.13;;
77099;SDS011;66602;48.922;2.414;2023-12-14T06:07:38;7.30;;;2.92;;
77099;SDS011;66602;48.922;2.414;2023-12-14T06:10:04;4.72;;;3.47;;
77099;SDS011;66602;48.922;2.414;2023-12-14T06:12:30;12.65;;;3.47;;
77099;SDS011;66602;48.922;2.414;2023-12-14T06:14:56;4.80;;;3.40;;
77099;SDS011;66602;48.922;2.414;2023-12-14T06:17:22;4.60;;;3.17;;
77099;SDS011;66602;48.922;2.414;2023-12-14T06:19:47;8.27;;;2.95;;
77099;SDS011;66602;48.922;2.414;2023-12-14T06:22:13;9.77;;;3.70;;
77099;SDS011;66602;48.922;2.414;2023-12-14T06:24:38;4.88;;;3.10;;
77099;SDS011;66602;48.922;2.414;2023-12-14T06:27:04;9.88;;;3.47;;
77099;SDS011;66602;48.922;2.414;2023-12-14T06:29:29;7.07;;;3.38;;
77099;SDS011;66602;48.922;2.414;2023-12-14T06:31:55;3.78;;;3.33;;
77099;SDS011;66602;48.922;2.414;2023-12-14T06:34:20;3.90;;;3.40;;
77099;SDS011;66602;48.922;2.414;2023-12-14T06:36:46;10.77;;;5.00;;
77099;SDS011;66602;48.922;2.414;2023-12-14T06:39:13;14.35;;;3.65;;
77099;SDS011;66602;48.922;2.414;2023-12-14T06:41:38;5.55;;;3.63;;
77099;SDS011;66602;48.922;2.414;2023-12-14T06:44:04;5.75;;;3.83;;
77099;SDS011;66602;48.922;2.414;2023-12-14T06:46:30;3.40;;;3.03;;
77099;SDS011;66602;48.922;2.414;2023-12-14T06:48:55;7.78;;;2.88;;
77099;SDS011;66602;48.922;2.414;2023-12-14T06:51:21;12.30;;;3.65;;
77099;SDS011;66602;48.922;2.414;2023-12-14T06:53:47;9.90;;;2.92;;
77099;SDS011;66602;48.922;2.414;2023-12-14T06:56:12;10.15;;;3.90;;
77099;SDS011;66602;48.922;2.414;2023-12-14T06:58:38;17.60;;;3.55;;
77099;SDS011;66602;48.922;2.414;2023-12-14T07:01:05;8.50;;;3.45;;
77099;SDS011;66602;48.922;2.414;2023-12-14T07:03:30;9.18;;;3.47;;
77099;SDS011;66602;48.922;2.414;2023-12-14T07:05:56;8.00;;;4.13;;
77099;SDS011;66602;48.922;2.414;2023-12-14T07:08:22;10.20;;;4.25;;
77099;SDS011;66602;48.922;2.414;2023-12-14T07:10:48;16.77;;;3.15;;
77099;SDS011;66602;48.922;2.414;2023-12-14T07:13:14;8.00;;;2.92;;
77099;SDS011;66602;48.922;2.414;2023-12-14T07:15:39;7.50;;;2.80;;
77099;SDS011;66602;48.922;2.414;2023-12-14T07:18:05;9.25;;;4.60;;
77099;SDS011;66602;48.922;2.414;2023-12-14T07:20:30;16.55;;;5.55;;
77099;SDS011;66602;48.922;2.414;2023-12-14T07:22:56;8.10;;;3.17;;
77099;SDS011;66602;48.922;2.414;2023-12-14T07:25:23;8.18;;;2.85;;
77099;SDS011;66602;48.922;2.414;2023-12-14T07:27:49;7.82;;;3.00;;
77099;SDS011;66602;48.922;2.414;2023-12-14T07:30:16;11.52;;;3.80;;
77099;SDS011;66602;48.922;2.414;2023-12-14T07:32:41;10.55;;;3.30;;
77099;SDS011;66602;48.922;2.414;2023-12-14T07:35:07;5.75;;;2.50;;
77099;SDS011;66602;48.922;2.414;2023-12-14T07:37:33;6.40;;;3.08;;
77099;SDS011;66602;48.922;2.414;2023-12-14T07:39:59;4.90;;;2.80;;
77099;SDS011;66602;48.922;2.414;2023-12-14T07:42:24;8.82;;;3.30;;
77099;SDS011;66602;48.922;2.414;2023-12-14T07:44:50;6.97;;;2.65;;
77099;SDS011;66602;48.922;2.414;2023-12-14T07:47:16;7.72;;;3.17;;
77099;SDS011;66602;48.922;2.414;2023-12-14T07:49:41;11.73;;;3.15;;
77099;SDS011;66602;48.922;2.414;2023-12-14T07:52:07;10.57;;;3.30;;
77099;SDS011;66602;48.922;2.414;2023-12-14T07:54:33;3.00;;;2.45;;
77099;SDS011;66602;48.922;2.414;2023-12-14T07:56:59;8.25;;;2.85;;
77099;SDS011;66602;48.922;2.414;2023-12-14T07:59:24;8.77;;;3.33;;
77099;SDS011;66602;48.922;2.414;2023-12-14T08:01:50;6.47;;;2.33;;
77099;SDS011;66602;48.922;2.414;2023-12-14T08:04:15;28.45;;;6.97;;
77099;SDS011;66602;48.922;2.414;2023-12-14T08:06:41;26.80;;;6.32;;
77099;SDS011;66602;48.922;2.414;2023-12-14T08:09:07;7.32;;;2.58;;
77099;SDS011;66602;48.922;2.414;2023-12-14T08:11:33;5.88;;;3.00;;
77099;SDS011;66602;48.922;2.414;2023-12-14T08:13:59;19.70;;;5.55;;
77099;SDS011;66602;48.922;2.414;2023-12-14T08:16:25;6.47;;;3.45;;
77099;SDS011;66602;48.922;2.414;2023-12-14T08:18:50;52.30;;;11.23;;
77099;SDS011;66602;48.922;2.414;2023-12-14T08:21:17;13.32;;;4.25;;
77099;SDS011;66602;48.922;2.414;2023-12-14T08:23:43;29.40;;;4.80;;
77099;SDS011;66602;48.922;2.414;2023-12-14T08:26:09;4.35;;;3.50;;
77099;SDS011;66602;48.922;2.414;2023-12-14T08:28:41;11.32;;;4.60;;
77099;SDS011;66602;48.922;2.414;2023-12-14T08:31:06;7.78;;;5.63;;
77099;SDS011;66602;48.922;2.414;2023-12-14T08:33:34;11.13;;;5.78;;
77099;SDS011;66602;48.922;2.414;2023-12-14T08:36:00;13.90;;;6.80;;
77099;SDS011;66602;48.922;2.414;2023-12-14T08:38:35;55.72;;;11.73;;
77099;SDS011;66602;48.922;2.414;2023-12-14T08:41:02;12.57;;;3.97;;
77099;SDS011;66602;48.922;2.414;2023-12-14T08:43:28;18.85;;;4.40;;
77099;SDS011;66602;48.922;2.414;2023-12-14T08:45:54;7.05;;;4.47;;
77099;SDS011;66602;48.922;2.414;2023-12-14T08:48:21;13.40;;;4.30;;
77099;SDS011;66602;48.922;2.414;2023-12-14T08:50:47;14.00;;;4.20;;
77099;SDS011;66602;48.922;2.414;2023-12-14T08:53:13;4.80;;;4.28;;
77099;SDS011;66602;48.922;2.414;2023-12-14T08:55:39;11.40;;;3.33;;
77099;SDS011;66602;48.922;2.414;2023-12-14T08:58:05;9.38;;;4.00;;
77099;SDS011;66602;48.922;2.414;2023-12-14T09:00:30;6.00;;;3.75;;
77099;SDS011;66602;48.922;2.414;2023-12-14T09:02:56;9.38;;;2.95;;
77099;SDS011;66602;48.922;2.414;2023-12-14T09:05:22;6.82;;;3.53;;
77099;SDS011;66602;48.922;2.414;2023-12-14T09:07:49;6.38;;;3.20;;
77099;SDS011;66602;48.922;2.414;2023-12-14T09:10:19;6.45;;;3.28;;
77099;SDS011;66602;48.922;2.414;2023-12-14T09:12:45;7.10;;;2.58;;
77099;SDS011;66602;48.922;2.414;2023-12-14T09:15:11;2.83;;;2.63;;
77099;SDS011;66602;48.922;2.414;2023-12-14T09:17:36;4.18;;;2.90;;
77099;SDS011;66602;48.922;2.414;2023-12-14T09:20:02;7.50;;;3.35;;
77099;SDS011;66602;48.922;2.414;2023-12-14T09:22:31;6.47;;;3.42;;
77099;SDS011;66602;48.922;2.414;2023-12-14T09:24:56;9.50;;;2.80;;
77099;SDS011;66602;48.922;2.414;2023-12-14T09:27:23;11.40;;;3.20;;
77099;SDS011;66602;48.922;2.414;2023-12-14T09:29:48;14.98;;;4.18;;
77099;SDS011;66602;48.922;2.414;2023-12-14T09:32:14;10.10;;;2.95;;
77099;SDS011;66602;48.922;2.414;2023-12-14T09:34:39;10.05;;;2.70;;
77099;SDS011;66602;48.922;2.414;2023-12-14T09:37:05;2.83;;;2.50;;
77099;SDS011;66602;48.922;2.414;2023-12-14T09:39:31;3.38;;;2.15;;
77099;SDS011;66602;48.922;2.414;2023-12-14T09:42:03;4.35;;;2.72;;
77099;SDS011;66602;48.922;2.414;2023-12-14T09:44:30;4.13;;;2.08;;
77099;SDS011;66602;48.922;2.414;2023-12-14T09:46:57;3.63;;;2.50;;
77099;SDS011;66602;48.922;2.414;2023-12-14T09:49:27;2.88;;;2.08;;
77099;SDS011;66602;48.922;2.414;2023-12-14T09:51:58;4.05;;;2.80;;
77099;SDS011;66602;48.922;2.414;2023-12-14T09:54:24;3.45;;;2.60;;
77099;SDS011;66602;48.922;2.414;2023-12-14T09:56:52;4.30;;;2.40;;
77099;SDS011;66602;48.922;2.414;2023-12-14T09:59:19;5.22;;;2.30;;
77099;SDS011;66602;48.922;2.414;2023-12-14T10:01:45;4.78;;;2.42;;
77099;SDS011;66602;48.922;2.414;2023-12-14T10:04:15;5.25;;;2.42;;
77099;SDS011;66602;48.922;2.414;2023-12-14T10:06:45;11.82;;;2.90;;
77099;SDS011;66602;48.922;2.414;2023-12-14T10:09:12;3.50;;;2.60;;
77099;SDS011;66602;48.922;2.414;2023-12-14T10:11:41;5.45;;;2.40;;
77099;SDS011;66602;48.922;2.414;2023-12-14T10:14:23;2.80;;;2.30;;
77099;SDS011;66602;48.922;2.414;2023-12-14T10:16:50;2.55;;;1.80;;
77099;SDS011;66602;48.922;2.414;2023-12-14T10:19:17;2.58;;;2.13;;
77099;SDS011;66602;48.922;2.414;2023-12-14T10:21:44;11.50;;;2.90;;
77099;SDS011;66602;48.922;2.414;2023-12-14T10:24:11;3.85;;;1.75;;
77099;SDS011;66602;48.922;2.414;2023-12-14T10:26:37;4.72;;;2.03;;
77099;SDS011;66602;48.922;2.414;2023-12-14T10:29:03;3.47;;;2.40;;
77099;SDS011;66602;48.922;2.414;2023-12-14T10:31:32;3.85;;;2.15;;
77099;SDS011;66602;48.922;2.414;2023-12-14T10:34:05;2.53;;;1.83;;
77099;SDS011;66602;48.922;2.414;2023-12-14T10:36:32;3.60;;;1.80;;
77099;SDS011;66602;48.922;2.414;2023-12-14T10:38:59;1.70;;;1.60;;
77099;SDS011;66602;48.922;2.414;2023-12-14T10:41:25;5.85;;;2.05;;
77099;SDS011;66602;48.922;2.414;2023-12-14T10:43:55;5.18;;;2.17;;
77099;SDS011;66602;48.922;2.414;2023-12-14T10:46:21;4.93;;;2.35;;
77099;SDS011;66602;48.922;2.414;2023-12-14T10:48:49;5.90;;;2.08;;
77099;SDS011;66602;48.922;2.414;2023-12-14T10:51:17;4.63;;;1.73;;
77099;SDS011;66602;48.922;2.414;2023-12-14T10:53:45;4.57;;;1.77;;
77099;SDS011;66602;48.922;2.414;2023-12-14T10:56:14;7.22;;;1.63;;
77099;SDS011;66602;48.922;2.414;2023-12-14T10:58:52;2.00;;;1.85;;
77099;SDS011;66602;48.922;2.414;2023-12-14T11:01:20;7.60;;;1.60;;
77099;SDS011;66602;48.922;2.414;2023-12-14T11:03:48;2.05;;;1.80;;
77099;SDS011;66602;48.922;2.414;2023-12-14T11:09:01;2.38;;;1.98;;
77099;SDS011;66602;48.922;2.414;2023-12-14T11:11:38;7.68;;;2.58;;
77099;SDS011;66602;48.922;2.414;2023-12-14T11:14:07;10.02;;;2.80;;
77099;SDS011;66602;48.922;2.414;2023-12-14T11:16:35;4.18;;;2.78;;
77099;SDS011;66602;48.922;2.414;2023-12-14T11:19:44;6.85;;;2.53;;
77099;SDS011;66602;48.922;2.414;2023-12-14T11:24:22;6.95;;;2.95;;
77099;SDS011;66602;48.922;2.414;2023-12-14T11:26:51;4.45;;;2.92;;
77099;SDS011;66602;48.922;2.414;2023-12-14T11:29:17;6.10;;;2.97;;
77099;SDS011;66602;48.922;2.414;2023-12-14T11:31:46;4.45;;;2.38;;
77099;SDS011;66602;48.922;2.414;2023-12-14T11:34:11;7.85;;;2.45;;
77099;SDS011;66602;48.922;2.414;2023-12-14T11:36:37;6.25;;;3.47;;
77099;SDS011;66602;48.922;2.414;2023-12-14T11:39:07;4.90;;;3.78;;
77099;SDS011;66602;48.922;2.414;2023-12-14T11:41:33;8.82;;;4.78;;
77099;SDS011;66602;48.922;2.414;2023-12-14T11:43:59;7.18;;;5.30;;
77099;SDS011;66602;48.922;2.414;2023-12-14T11:46:25;6.05;;;3.70;;
77099;SDS011;66602;48.922;2.414;2023-12-14T11:48:50;4.80;;;2.65;;
77099;SDS011;66602;48.922;2.414;2023-12-14T11:51:16;4.80;;;1.80;;
77099;SDS011;66602;48.922;2.414;2023-12-14T11:53:50;2.75;;;2.00;;
77099;SDS011;66602;48.922;2.414;2023-12-14T11:56:19;3.50;;;2.08;;
77099;SDS011;66602;48.922;2.414;2023-12-14T11:58:45;1.90;;;1.75;;
77099;SDS011;66602;48.922;2.414;2023-12-14T12:01:12;3.30;;;2.17;;
77099;SDS011;66602;48.922;2.414;2023-12-14T12:03:42;7.70;;;2.20;;
77099;SDS011;66602;48.922;2.414;2023-12-14T12:06:09;3.38;;;2.00;;
77099;SDS011;66602;48.922;2.414;2023-12-14T12:08:54;3.35;;;2.08;;
77099;SDS011;66602;48.922;2.414;2023-12-14T12:11:20;2.17;;;1.80;;
77099;SDS011;66602;48.922;2.414;2023-12-14T12:13:50;2.90;;;1.85;;
77099;SDS011;66602;48.922;2.414;2023-12-14T12:16:17;5.47;;;1.85;;
77099;SDS011;66602;48.922;2.414;2023-12-14T12:18:42;2.83;;;2.15;;
77099;SDS011;66602;48.922;2.414;2023-12-14T12:21:07;2.55;;;1.88;;
77099;SDS011;66602;48.922;2.414;2023-12-14T12:23:34;7.85;;;2.72;;
77099;SDS011;66602;48.922;2.414;2023-12-14T12:26:00;4.95;;;3.00;;
77099;SDS011;66602;48.922;2.414;2023-12-14T12:28:25;8.75;;;2.45;;
77099;SDS011;66602;48.922;2.414;2023-12-14T12:30:51;6.03;;;1.88;;
77099;SDS011;66602;48.922;2.414;2023-12-14T12:33:16;5.25;;;1.92;;
77099;SDS011;66602;48.922;2.414;2023-12-14T12:35:42;10.05;;;2.63;;
77099;SDS011;66602;48.922;2.414;2023-12-14T12:38:07;6.53;;;2.50;;
77099;SDS011;66602;48.922;2.414;2023-12-14T12:40:33;3.50;;;2.03;;
77099;SDS011;66602;48.922;2.414;2023-12-14T12:42:58;3.03;;;2.75;;
77099;SDS011;66602;48.922;2.414;2023-12-14T12:45:24;6.90;;;2.20;;
77099;SDS011;66602;48.922;2.414;2023-12-14T12:47:52;9.50;;;3.45;;
77099;SDS011;66602;48.922;2.414;2023-12-14T12:50:18;6.45;;;2.00;;
77099;SDS011;66602;48.922;2.414;2023-12-14T12:52:44;5.45;;;1.77;;
77099;SDS011;66602;48.922;2.414;2023-12-14T12:55:13;4.78;;;2.03;;
77099;SDS011;66602;48.922;2.414;2023-12-14T12:57:39;6.30;;;2.10;;
77099;SDS011;66602;48.922;2.414;2023-12-14T13:00:06;10.55;;;3.50;;
77099;SDS011;66602;48.922;2.414;2023-12-14T13:02:36;3.88;;;2.35;;
77099;SDS011;66602;48.922;2.414;2023-12-14T13:05:04;2.15;;;1.95;;
77099;SDS011;66602;48.922;2.414;2023-12-14T13:07:30;4.45;;;2.00;;
77099;SDS011;66602;48.922;2.414;2023-12-14T13:09:56;8.85;;;3.50;;
77099;SDS011;66602;48.922;2.414;2023-12-14T13:12:21;5.65;;;2.10;;
77099;SDS011;66602;48.922;2.414;2023-12-14T13:14:48;2.53;;;1.83;;
77099;SDS011;66602;48.922;2.414;2023-12-14T13:17:13;6.97;;;2.10;;
77099;SDS011;66602;48.922;2.414;2023-12-14T13:19:41;2.25;;;2.05;;
77099;SDS011;66602;48.922;2.414;2023-12-14T13:22:07;4.95;;;2.60;;
77099;SDS011;66602;48.922;2.414;2023-12-14T13:24:33;3.28;;;2.35;;
77099;SDS011;66602;48.922;2.414;2023-12-14T13:26:58;7.63;;;2.20;;
77099;SDS011;66602;48.922;2.414;2023-12-14T13:29:24;2.70;;;2.42;;
77099;SDS011;66602;48.922;2.414;2023-12-14T13:31:49;4.72;;;2.17;;
77099;SDS011;66602;48.922;2.414;2023-12-14T13:34:15;6.18;;;2.17;;
77099;SDS011;66602;48.922;2.414;2023-12-14T13:36:40;3.97;;;2.42;;
77099;SDS011;66602;48.922;2.414;2023-12-14T13:39:06;11.00;;;2.45;;
77099;SDS011;66602;48.922;2.414;2023-12-14T13:41:31;5.97;;;2.20;;
77099;SDS011;66602;48.922;2.414;2023-12-14T13:43:59;3.47;;;1.90;;
77099;SDS011;66602;48.922;2.414;2023-12-14T13:46:25;9.10;;;2.70;;
77099;SDS011;66602;48.922;2.414;2023-12-14T13:48:51;5.00;;;1.95;;
77099;SDS011;66602;48.922;2.414;2023-12-14T13:51:18;4.03;;;1.70;;
77099;SDS011;66602;48.922;2.414;2023-12-14T13:53:44;2.30;;;2.10;;
77099;SDS011;66602;48.922;2.414;2023-12-14T13:56:10;5.97;;;1.77;;
77099;SDS011;66602;48.922;2.414;2023-12-14T13:58:35;3.38;;;2.10;;
77099;SDS011;66602;48.922;2.414;2023-12-14T14:01:03;2.15;;;1.88;;
77099;SDS011;66602;48.922;2.414;2023-12-14T14:03:32;3.55;;;1.90;;
77099;SDS011;66602;48.922;2.414;2023-12-14T14:05:58;4.50;;;2.35;;
77099;SDS011;66602;48.922;2.414;2023-12-14T14:08:25;1.63;;;1.45;;
77099;SDS011;66602;48.922;2.414;2023-12-14T14:10:50;5.05;;;2.10;;
77099;SDS011;66602;48.922;2.414;2023-12-14T14:13:16;2.30;;;1.90;;
77099;SDS011;66602;48.922;2.414;2023-12-14T14:15:41;5.75;;;2.22;;
77099;SDS011;66602;48.922;2.414;2023-12-14T14:18:07;6.80;;;2.55;;
77099;SDS011;66602;48.922;2.414;2023-12-14T14:20:33;2.80;;;1.92;;
77099;SDS011;66602;48.922;2.414;2023-12-14T14:22:59;3.95;;;1.73;;
77099;SDS011;66602;48.922;2.414;2023-12-14T14:25:25;4.07;;;1.88;;
77099;SDS011;66602;48.922;2.414;2023-12-14T14:27:50;5.88;;;2.72;;
77099;SDS011;66602;48.922;2.414;2023-12-14T14:30:16;4.45;;;2.33;;
77099;SDS011;66602;48.922;2.414;2023-12-14T14:32:42;9.57;;;2.45;;
77099;SDS011;66602;48.922;2.414;2023-12-14T14:35:08;2.92;;;2.38;;
77099;SDS011;66602;48.922;2.414;2023-12-14T14:37:33;29.45;;;3.80;;
77099;SDS011;66602;48.922;2.414;2023-12-14T14:39:59;6.68;;;3.22;;
77099;SDS011;66602;48.922;2.414;2023-12-14T14:42:25;5.38;;;3.08;;
77099;SDS011;66602;48.922;2.414;2023-12-14T14:44:50;3.10;;;2.88;;